Time;durP1;ratioP1;P1;durP2;ratioP2;P2;SDS_P1;SDS_P2;PMS_P1;PMS_P2;Temp;Humidity;BMP_temperature;BMP_pressure;BME280_temperature;BME280_humidity;BME280_pressure;Samples;Min_cycle;Max_cycle;Signal;HPM_P1;HPM_P2
2023/05/13 00:00:14;;;;;;;2.47;2.28;;;;;;;9.41;90.69;98686.34;5052249;28;20194;-62
2023/05/13 00:02:39;;;;;;;1.80;1.70;;;;;;;9.77;90.23;98731.50;5052020;28;20192;-63
2023/05/13 00:05:05;;;;;;;2.00;1.85;;;;;;;9.89;90.60;98755.75;5052055;28;20174;-63
2023/05/13 00:07:30;;;;;;;1.85;1.75;;;;;;;9.85;90.43;98752.53;5051717;28;20660;-63
2023/05/13 00:09:56;;;;;;;2.38;1.95;;;;;;;9.82;91.18;98744.13;5052009;28;20173;-63
2023/05/13 00:12:21;;;;;;;3.17;2.15;;;;;;;9.25;91.38;98670.09;5051833;28;20205;-63
2023/05/13 00:14:47;;;;;;;2.17;1.70;;;;;;;9.13;92.07;98651.91;5051936;28;20174;-63
2023/05/13 00:17:12;;;;;;;2.20;2.00;;;;;;;9.09;92.59;98655.63;5052101;28;20177;-63
2023/05/13 00:19:38;;;;;;;3.63;1.80;;;;;;;9.24;92.89;98691.69;5051889;28;20186;-63
2023/05/13 00:22:03;;;;;;;2.15;2.05;;;;;;;9.59;92.79;98752.41;5069491;28;20667;-63
2023/05/13 00:24:29;;;;;;;2.45;1.70;;;;;;;9.02;92.00;98655.13;5069356;28;20288;-63
2023/05/13 00:26:54;;;;;;;2.03;1.92;;;;;;;9.34;91.99;98713.47;5068848;28;21086;-63
2023/05/13 00:29:20;;;;;;;3.95;2.15;;;;;;;8.95;94.26;98694.28;5069409;28;20264;-62
2023/05/13 00:31:45;;;;;;;2.22;1.70;;;;;;;9.00;95.48;98749.88;5069278;28;20320;-63
2023/05/13 00:34:10;;;;;;;2.15;1.70;;;;;;;8.59;95.49;98709.25;5069361;28;20189;-63
2023/05/13 00:36:36;;;;;;;2.85;1.85;;;;;;;8.74;96.36;98750.50;5069234;28;20188;-63
2023/05/13 00:39:02;;;;;;;3.13;1.83;;;;;;;8.74;96.80;98768.56;5069293;28;20196;-63
2023/05/13 00:41:28;;;;;;;2.03;1.92;;;;;;;8.56;97.05;98736.06;5069251;28;20272;-63
2023/05/13 00:43:55;;;;;;;2.75;1.98;;;;;;;8.03;97.85;98660.78;5069275;28;20781;-63
2023/05/13 00:46:20;;;;;;;2.10;2.00;;;;;;;8.24;97.59;98682.00;5049029;28;20186;-63
2023/05/13 00:48:46;;;;;;;2.08;1.98;;;;;;;8.56;98.14;98730.88;5049098;28;20622;-63
2023/05/13 00:51:11;;;;;;;2.22;2.03;;;;;;;7.94;100.00;98663.88;5049018;28;20283;-63
2023/05/13 00:53:38;;;;;;;4.18;1.90;;;;;;;8.70;100.00;98772.25;5049105;28;20185;-63
2023/05/13 00:56:04;;;;;;;3.67;2.30;;;;;;;8.77;99.86;98760.66;5049085;28;20276;-63
2023/05/13 00:58:29;;;;;;;4.93;2.10;;;;;;;8.06;100.00;98673.53;5009330;28;20345;-63
2023/05/13 01:01:13;;;;;;;2.40;2.20;;;;;;;8.53;100.00;98761.19;5009635;28;20195;-63
2023/05/13 01:03:49;;;;;;;2.85;2.13;;;;;;;8.69;100.00;98760.25;5009470;28;20657;-62
2023/05/13 01:06:27;;;;;;;2.40;2.08;;;;;;;8.74;100.00;98768.56;5009441;28;20291;-62
2023/05/13 01:08:58;;;;;;;2.60;2.03;;;;;;;8.88;100.00;98778.13;5009439;28;20576;-62
2023/05/13 01:11:28;;;;;;;3.92;2.50;;;;;;;8.58;100.00;98728.22;5009224;28;20214;-62
2023/05/13 01:14:02;;;;;;;2.20;1.70;;;;;;;8.20;100.00;98712.28;5009347;28;20187;-62
2023/05/13 01:16:42;;;;;;;4.85;2.30;;;;;;;8.16;100.00;98728.78;5012211;28;20193;-62
2023/05/13 01:19:48;;;;;;;4.65;1.95;;;;;;;8.28;100.00;98781.47;5029048;28;20247;-62
2023/05/13 01:22:13;;;;;;;2.30;2.08;;;;;;;7.76;100.00;98706.03;5028977;28;20195;-62
2023/05/13 01:24:39;;;;;;;2.28;2.03;;;;;;;7.96;100.00;98734.19;5028928;28;20309;-62
2023/05/13 01:27:06;;;;;;;2.03;1.92;;;;;;;8.21;100.00;98775.81;5029024;28;20736;-62
2023/05/13 01:29:31;;;;;;;3.33;1.92;;;;;;;8.58;100.00;98790.97;5040217;28;20284;-62
2023/05/13 01:31:57;;;;;;;4.10;2.22;;;;;;;8.23;100.00;98717.28;5051144;28;20293;-62
2023/05/13 01:34:25;;;;;;;2.08;1.88;;;;;;;7.95;100.00;98691.31;5051150;28;20194;-62
2023/05/13 01:36:50;;;;;;;2.10;2.00;;;;;;;8.38;100.00;98777.50;5050886;28;20581;-62
2023/05/13 01:39:18;;;;;;;3.35;2.40;;;;;;;8.12;100.00;98719.56;5070099;28;20189;-62
2023/05/13 01:41:44;;;;;;;3.90;2.35;;;;;;;7.96;100.00;98677.50;5072235;28;20191;-62
2023/05/13 01:44:09;;;;;;;2.25;2.08;;;;;;;8.57;100.00;98796.22;5072170;28;20276;-62
2023/05/13 01:46:37;;;;;;;3.97;2.35;;;;;;;8.52;100.00;98791.31;5072141;28;20235;-62
2023/05/13 01:49:02;;;;;;;2.75;2.55;;;;;;;8.14;100.00;98725.47;5072085;28;20236;-62
2023/05/13 01:51:28;;;;;;;5.18;2.10;;;;;;;8.51;100.00;98787.03;5072018;28;20702;-62
2023/05/13 01:53:53;;;;;;;3.92;2.40;;;;;;;8.62;100.00;98764.09;5072055;28;20725;-63
2023/05/13 01:56:20;;;;;;;2.40;2.30;;;;;;;8.41;100.00;98736.91;5072000;28;20208;-63
2023/05/13 01:58:45;;;;;;;2.45;2.13;;;;;;;8.61;100.00;98784.78;5071739;28;20197;-63
2023/05/13 02:01:10;;;;;;;2.38;2.10;;;;;;;8.28;100.00;98746.19;5071917;28;20264;-63
2023/05/13 02:03:36;;;;;;;2.92;2.65;;;;;;;8.87;100.00;98797.94;5071826;28;20185;-63
2023/05/13 02:06:02;;;;;;;7.68;2.28;;;;;;;9.04;100.00;98802.16;5071755;28;20185;-63
2023/05/13 02:08:27;;;;;;;3.85;2.30;;;;;;;9.12;100.00;98799.97;5071727;28;20192;-63
2023/05/13 02:10:56;;;;;;;2.22;2.13;;;;;;;8.68;100.00;98748.25;5058252;28;20224;-63
2023/05/13 02:13:22;;;;;;;3.10;2.10;;;;;;;8.36;100.00;98713.13;5054356;28;20177;-63
2023/05/13 02:15:48;;;;;;;2.42;2.25;;;;;;;8.88;100.00;98786.72;5054001;28;20244;-63
2023/05/13 02:18:13;;;;;;;2.88;2.35;;;;;;;8.81;100.00;98749.28;5054000;28;20269;-63
2023/05/13 02:20:39;;;;;;;4.47;2.60;;;;;;;8.59;100.00;98704.09;5053970;28;20204;-63
2023/05/13 02:23:04;;;;;;;2.58;2.28;;;;;;;9.07;100.00;98807.97;5053879;28;20170;-63
2023/05/13 02:25:30;;;;;;;3.20;2.47;;;;;;;8.63;100.00;98710.75;5053873;28;20302;-63
2023/05/13 02:27:55;;;;;;;2.25;2.10;;;;;;;8.68;100.00;98719.88;5053850;28;20644;-63
2023/05/13 02:30:25;;;;;;;3.85;2.40;;;;;;;8.90;100.00;98755.63;5053784;28;20181;-63
2023/05/13 02:32:51;;;;;;;2.03;1.92;;;;;;;9.05;100.00;98768.53;5053574;28;20210;-62
2023/05/13 02:35:16;;;;;;;3.38;2.38;;;;;;;8.68;100.00;98709.56;5053640;28;20239;-63
2023/05/13 02:37:42;;;;;;;2.38;2.17;;;;;;;8.73;100.00;98702.41;5053654;28;20660;-63
2023/05/13 02:40:08;;;;;;;2.85;2.65;;;;;;;9.20;100.00;98801.19;5053559;28;20177;-63
2023/05/13 02:42:34;;;;;;;2.75;2.45;;;;;;;8.72;100.00;98710.22;5053538;28;20269;-63
2023/05/13 02:44:59;;;;;;;3.65;2.58;;;;;;;8.97;100.00;98765.53;5053490;28;20684;-63
2023/05/13 02:47:24;;;;;;;2.45;2.28;;;;;;;8.48;100.00;98685.81;5053402;28;20713;-63
2023/05/13 02:49:50;;;;;;;3.60;2.38;;;;;;;9.15;100.00;98790.28;5052934;28;20178;-63
2023/05/13 02:52:15;;;;;;;3.30;2.50;;;;;;;9.09;100.00;98744.19;5053250;28;20571;-63
2023/05/13 02:54:40;;;;;;;2.90;2.70;;;;;;;9.18;100.00;98743.66;5053015;28;20170;-63
2023/05/13 02:57:06;;;;;;;4.90;2.33;;;;;;;9.16;100.00;98742.94;5053510;28;20182;-63
2023/05/13 02:59:31;;;;;;;3.15;2.22;;;;;;;9.59;100.00;98798.91;5052879;28;20228;-62
2023/05/13 03:01:56;;;;;;;4.13;2.55;;;;;;;9.44;100.00;98755.88;5053176;28;20232;-63
2023/05/13 03:04:23;;;;;;;3.63;2.60;;;;;;;9.32;100.00;98810.81;5053426;28;20224;-63
2023/05/13 03:06:51;;;;;;;3.40;2.65;;;;;;;8.89;100.00;98730.75;5053032;28;20174;-63
2023/05/13 03:09:17;;;;;;;3.88;2.78;;;;;;;9.63;100.00;98833.16;5052976;28;20232;-63
2023/05/13 03:11:42;;;;;;;2.72;2.50;;;;;;;9.26;100.00;98749.22;5052943;28;20201;-63
2023/05/13 03:14:08;;;;;;;5.25;2.83;;;;;;;9.44;100.00;98810.13;5052942;28;20532;-63
2023/05/13 03:16:33;;;;;;;3.22;2.92;;;;;;;9.42;100.00;98816.28;5052913;28;20181;-63
2023/05/13 03:18:58;;;;;;;3.10;2.90;;;;;;;9.04;100.00;98769.41;5052832;28;20261;-63
2023/05/13 03:21:24;;;;;;;3.03;2.83;;;;;;;8.97;100.00;98744.06;5052802;28;20174;-63
2023/05/13 03:23:49;;;;;;;4.57;2.70;;;;;;;9.49;100.00;98823.59;5052758;28;20202;-63
2023/05/13 03:26:15;;;;;;;2.70;2.50;;;;;;;9.45;100.00;98791.16;5052713;28;20659;-63
2023/05/13 03:28:40;;;;;;;3.30;2.97;;;;;;;9.83;100.00;98821.56;5052699;28;20221;-63
2023/05/13 03:31:06;;;;;;;6.07;3.10;;;;;;;10.10;100.00;98847.56;5052538;28;20229;-63
2023/05/13 03:33:31;;;;;;;5.78;2.83;;;;;;;9.79;100.00;98763.22;5052319;28;20177;-63
2023/05/13 03:35:57;;;;;;;3.35;2.95;;;;;;;10.13;100.00;98808.59;5052565;28;20170;-63
2023/05/13 03:38:22;;;;;;;3.45;3.13;;;;;;;10.34;100.00;98830.56;5052450;28;20178;-63
2023/05/13 03:40:48;;;;;;;3.60;3.28;;;;;;;10.20;100.00;98782.28;5052377;28;20177;-63
2023/05/13 03:43:13;;;;;;;2.47;2.28;;;;;;;10.55;99.79;98842.19;5052375;28;20242;-63
2023/05/13 03:45:38;;;;;;;4.45;3.10;;;;;;;10.26;98.52;98787.06;5052347;28;20165;-63
2023/05/13 03:48:04;;;;;;;2.67;2.47;;;;;;;10.54;97.20;98812.91;5052313;28;20181;-63
2023/05/13 03:50:30;;;;;;;3.65;2.90;;;;;;;10.57;94.64;98811.88;5052292;28;20173;-63
2023/05/13 03:52:55;;;;;;;3.08;2.53;;;;;;;10.65;94.35;98809.63;5052147;28;20753;-63
2023/05/13 03:55:21;;;;;;;2.90;2.53;;;;;;;10.92;93.09;98844.16;5052214;28;20174;-63
2023/05/13 03:57:47;;;;;;;3.00;2.80;;;;;;;10.79;92.45;98807.84;5049619;28;20268;-63
2023/05/13 04:00:14;;;;;;;3.13;2.70;;;;;;;10.50;92.76;98756.28;5049423;28;20222;-63
2023/05/13 04:02:39;;;;;;;2.83;2.40;;;;;;;10.99;92.88;98830.75;5048898;28;20186;-63
2023/05/13 04:05:05;;;;;;;3.88;2.60;;;;;;;11.06;92.09;98833.75;5049650;28;20182;-63
2023/05/13 04:07:30;;;;;;;2.60;2.40;;;;;;;10.71;92.59;98770.44;5049564;28;20699;-63
2023/05/13 04:09:56;;;;;;;3.30;2.70;;;;;;;10.92;92.14;98794.97;5049588;28;20178;-63
2023/05/13 04:12:21;;;;;;;6.93;2.65;;;;;;;10.91;91.10;98803.66;5049428;28;20707;-63
2023/05/13 04:14:47;;;;;;;2.65;2.55;;;;;;;10.90;91.18;98799.41;5049497;28;20178;-63
2023/05/13 04:17:12;;;;;;;3.08;2.78;;;;;;;11.24;91.28;98861.91;5049436;28;20718;-63
2023/05/13 04:19:37;;;;;;;6.78;3.97;;;;;;;11.03;90.79;98805.47;5049471;28;20189;-63
2023/05/13 04:22:03;;;;;;;4.03;3.28;;;;;;;10.86;90.23;98782.41;5049681;28;20722;-63
2023/05/13 04:24:28;;;;;;;5.40;2.90;;;;;;;11.29;89.45;98841.72;5049330;28;20221;-63
2023/05/13 04:26:54;;;;;;;2.78;2.58;;;;;;;10.82;89.31;98761.06;5049456;28;20177;-63
2023/05/13 04:29:19;;;;;;;3.40;2.72;;;;;;;10.85;88.66;98767.81;5050871;28;20194;-63
2023/05/13 04:31:45;;;;;;;2.78;2.58;;;;;;;11.34;88.83;98856.97;5051715;28;20263;-63
2023/05/13 04:34:10;;;;;;;2.88;2.67;;;;;;;11.33;89.12;98860.47;5051712;28;20180;-63
2023/05/13 04:36:35;;;;;;;2.80;2.28;;;;;;;11.41;89.34;98874.59;5051708;28;20170;-63
2023/05/13 04:39:01;;;;;;;3.50;2.80;;;;;;;11.02;89.18;98786.50;5051654;28;20552;-63
2023/05/13 04:41:26;;;;;;;3.30;3.00;;;;;;;11.11;88.62;98779.91;5051681;28;20224;-63
2023/05/13 04:43:52;;;;;;;4.55;2.95;;;;;;;11.40;88.39;98828.91;5051655;28;20518;-63
2023/05/13 04:46:17;;;;;;;5.57;2.67;;;;;;;11.60;87.95;98846.59;5051579;28;20671;-63
2023/05/13 04:48:47;;;;;;;2.67;2.47;;;;;;;11.60;87.55;98853.53;5051630;28;20169;-63
2023/05/13 04:51:13;;;;;;;4.25;2.83;;;;;;;11.64;86.66;98845.47;5051451;28;20212;-63
2023/05/13 04:53:38;;;;;;;3.70;3.40;;;;;;;11.54;86.41;98838.34;5051597;28;20213;-63
2023/05/13 04:56:04;;;;;;;3.55;2.60;;;;;;;12.00;83.12;98886.25;5051485;28;20257;-63
2023/05/13 04:58:29;;;;;;;3.25;2.55;;;;;;;11.71;83.79;98856.25;5051239;28;20280;-63
2023/05/13 05:00:56;;;;;;;3.67;3.38;;;;;;;11.55;84.47;98840.03;5051540;28;20180;-63
2023/05/13 05:03:22;;;;;;;3.13;2.80;;;;;;;12.00;84.65;98894.03;5051490;28;20185;-63
2023/05/13 05:05:47;;;;;;;2.47;2.35;;;;;;;11.70;83.86;98828.66;5051446;28;20201;-63
2023/05/13 05:08:13;;;;;;;3.75;2.92;;;;;;;11.79;83.27;98828.06;5051745;28;20205;-63
2023/05/13 05:10:38;;;;;;;3.10;2.83;;;;;;;11.81;83.02;98819.25;5051375;28;20166;-63
2023/05/13 05:13:04;;;;;;;4.28;2.50;;;;;;;11.88;81.99;98827.44;5052659;28;20205;-63
2023/05/13 05:15:29;;;;;;;5.57;2.90;;;;;;;12.27;80.95;98867.09;5054927;28;20177;-63
2023/05/13 05:17:55;;;;;;;3.22;2.58;;;;;;;11.84;80.81;98823.41;5055182;28;20710;-63
2023/05/13 05:20:23;;;;;;;3.25;2.38;;;;;;;12.11;81.09;98876.84;5055107;28;20170;-63
2023/05/13 05:22:49;;;;;;;4.20;2.95;;;;;;;12.10;81.19;98874.34;5055038;28;20185;-63
2023/05/13 05:25:14;;;;;;;5.93;3.00;;;;;;;12.01;80.89;98823.09;5055005;28;20703;-63
2023/05/13 05:27:40;;;;;;;7.80;3.35;;;;;;;12.72;81.00;98902.84;5054996;28;20235;-63
2023/05/13 05:30:06;;;;;;;5.28;3.08;;;;;;;12.78;80.54;98892.03;5054896;28;20525;-63
2023/05/13 05:32:32;;;;;;;3.28;2.97;;;;;;;12.52;80.31;98837.69;5054834;28;20231;-63
2023/05/13 05:35:00;;;;;;;3.33;2.90;;;;;;;12.66;79.33;98853.13;5054861;28;20174;-63
2023/05/13 05:37:26;;;;;;;3.65;3.10;;;;;;;12.83;79.95;98907.31;5054776;28;20254;-63
2023/05/13 05:39:52;;;;;;;3.60;2.90;;;;;;;12.33;79.68;98863.25;5054775;28;20239;-63
2023/05/13 05:42:17;;;;;;;3.75;3.08;;;;;;;12.51;79.54;98869.75;5054987;28;20189;-63
2023/05/13 05:44:42;;;;;;;6.15;3.60;;;;;;;12.62;79.42;98882.84;5054673;28;20827;-63
2023/05/13 05:47:08;;;;;;;4.93;3.20;;;;;;;12.71;79.77;98879.63;5054576;28;20178;-63
2023/05/13 05:49:33;;;;;;;7.15;3.40;;;;;;;12.70;79.12;98868.38;5054593;28;20174;-63
2023/05/13 05:51:59;;;;;;;4.40;3.20;;;;;;;12.82;79.59;98884.84;5054135;28;20201;-62
2023/05/13 05:54:24;;;;;;;3.83;3.05;;;;;;;13.05;78.49;98908.34;5054750;28;20177;-62
2023/05/13 05:56:49;;;;;;;5.82;3.90;;;;;;;13.15;78.26;98904.16;5054190;28;20174;-62
2023/05/13 05:59:15;;;;;;;4.25;3.42;;;;;;;13.16;77.92;98899.75;5054376;28;20181;-62
2023/05/13 06:01:40;;;;;;;6.15;3.53;;;;;;;12.65;78.34;98823.72;5054349;28;20629;-62
2023/05/13 06:04:05;;;;;;;4.03;3.25;;;;;;;13.19;77.74;98904.75;5054328;28;20177;-62
2023/05/13 06:06:31;;;;;;;7.60;3.30;;;;;;;13.15;77.16;98882.53;5054277;28;20181;-62
2023/05/13 06:08:57;;;;;;;3.80;3.50;;;;;;;13.15;75.06;98859.97;5054199;28;20181;-61
2023/05/13 06:11:22;;;;;;;5.45;3.60;;;;;;;13.14;74.83;98866.13;5054047;28;20745;-62
2023/05/13 06:13:48;;;;;;;5.15;3.53;;;;;;;13.32;74.68;98863.94;5054063;28;20260;-62
2023/05/13 06:16:13;;;;;;;3.97;3.50;;;;;;;13.49;73.86;98881.75;5054338;28;20173;-62
2023/05/13 06:18:39;;;;;;;4.35;3.10;;;;;;;13.34;71.88;98836.91;5053999;28;20205;-62
2023/05/13 06:21:04;;;;;;;3.55;3.25;;;;;;;14.00;70.85;98922.16;5053952;28;20233;-62
2023/05/13 06:23:29;;;;;;;3.53;2.90;;;;;;;13.87;69.18;98877.16;5053669;28;20170;-61
2023/05/13 06:25:57;;;;;;;3.03;2.72;;;;;;;14.27;67.12;98933.97;5053044;28;20186;-62
2023/05/13 06:28:22;;;;;;;4.95;3.33;;;;;;;13.91;67.42;98857.78;5053806;28;20698;-62
2023/05/13 06:30:48;;;;;;;9.15;4.05;;;;;;;14.49;67.96;98935.78;5053749;28;20169;-62
2023/05/13 06:33:13;;;;;;;6.40;3.65;;;;;;;14.34;67.79;98893.50;5053629;28;20232;-62
2023/05/13 06:35:39;;;;;;;6.82;4.15;;;;;;;14.52;68.22;98918.13;5053694;28;20667;-62
2023/05/13 06:38:04;;;;;;;7.32;3.90;;;;;;;14.25;68.05;98885.56;5053620;28;20169;-62
2023/05/13 06:40:30;;;;;;;6.85;3.67;;;;;;;14.59;69.79;98945.34;5053594;28;20180;-62
2023/05/13 06:42:55;;;;;;;5.07;4.18;;;;;;;14.38;69.26;98888.88;5053575;28;20228;-61
2023/05/13 06:45:22;;;;;;;9.00;4.78;;;;;;;14.53;69.22;98892.94;5053551;28;20203;-62
2023/05/13 06:47:51;;;;;;;8.30;4.75;;;;;;;14.39;68.78;98854.09;5053414;28;20686;-61
2023/05/13 06:50:17;;;;;;;7.82;4.00;;;;;;;14.78;68.51;98903.09;5053406;28;20216;-61
2023/05/13 06:52:43;;;;;;;6.03;3.63;;;;;;;14.75;65.86;98866.88;5053320;28;20229;-62
2023/05/13 06:55:09;;;;;;;5.38;3.65;;;;;;;14.73;65.58;98842.72;5053312;28;20170;-62
2023/05/13 06:57:34;;;;;;;4.65;3.15;;;;;;;14.86;64.66;98843.41;5053283;28;20174;-62
2023/05/13 07:00:00;;;;;;;7.95;4.85;;;;;;;15.07;66.05;98893.84;5052769;28;20211;-62
2023/05/13 07:02:25;;;;;;;11.07;3.95;;;;;;;15.14;67.12;98927.13;5053098;28;20729;-62
2023/05/13 07:04:51;;;;;;;4.63;3.67;;;;;;;15.32;67.55;98940.47;5053137;28;20261;-61
2023/05/13 07:07:16;;;;;;;7.47;3.40;;;;;;;15.37;67.07;98941.81;5053085;28;20170;-62
2023/05/13 07:09:42;;;;;;;7.13;3.42;;;;;;;15.12;67.26;98878.66;5052738;28;20260;-62
2023/05/13 07:12:10;;;;;;;6.50;3.50;;;;;;;15.44;67.53;98910.84;5052932;28;20231;-62
2023/05/13 07:14:36;;;;;;;3.92;3.28;;;;;;;15.75;67.93;98952.59;5052918;28;20181;-61
2023/05/13 07:17:02;;;;;;;7.63;3.40;;;;;;;15.36;67.03;98879.34;5052937;28;20182;-61
2023/05/13 07:19:27;;;;;;;4.75;3.42;;;;;;;15.88;67.04;98961.13;5052793;28;20178;-64
2023/05/13 07:21:53;;;;;;;7.07;2.95;;;;;;;15.47;66.01;98871.50;5052832;28;20228;-63
2023/05/13 07:24:18;;;;;;;3.33;3.03;;;;;;;15.80;64.06;98960.09;5052766;28;20192;-63
2023/05/13 07:26:44;;;;;;;4.72;2.65;;;;;;;15.38;65.48;98877.44;5052785;28;20195;-63
2023/05/13 07:29:09;;;;;;;3.85;2.53;;;;;;;15.55;66.13;98913.41;5052386;28;20178;-63
2023/05/13 07:31:35;;;;;;;3.42;2.85;;;;;;;15.20;65.89;98871.06;5052471;28;20203;-63
2023/05/13 07:34:00;;;;;;;4.68;2.65;;;;;;;15.16;65.64;98867.88;5052514;28;20177;-63
2023/05/13 07:36:26;;;;;;;7.70;3.15;;;;;;;15.53;64.94;98944.03;5052499;28;20212;-63
2023/05/13 07:38:52;;;;;;;4.70;2.67;;;;;;;15.66;64.84;98955.13;5052485;28;20169;-63
2023/05/13 07:41:17;;;;;;;5.03;2.72;;;;;;;15.69;64.34;98954.91;5052335;28;20181;-62
2023/05/13 07:43:43;;;;;;;4.63;2.70;;;;;;;15.46;64.63;98932.44;5052686;28;20196;-63
2023/05/13 07:46:08;;;;;;;4.13;2.25;;;;;;;15.16;62.28;98861.84;5052384;28;20173;-63
2023/05/13 07:48:34;;;;;;;3.67;2.72;;;;;;;15.45;62.17;98887.25;5052616;28;20181;-62
2023/05/13 07:50:59;;;;;;;4.70;2.88;;;;;;;15.54;61.44;98872.66;5052189;28;20615;-64
2023/05/13 07:53:25;;;;;;;4.85;2.58;;;;;;;15.61;61.62;98866.81;5069590;28;20192;-63
2023/05/13 07:55:50;;;;;;;5.00;3.17;;;;;;;16.06;61.04;98937.88;5069710;28;20610;-63
2023/05/13 07:58:17;;;;;;;4.65;3.10;;;;;;;16.00;61.77;98922.72;5069541;28;20189;-63
2023/05/13 08:00:42;;;;;;;3.33;2.40;;;;;;;16.18;60.70;98927.28;5069800;28;20249;-63
2023/05/13 08:03:08;;;;;;;4.22;2.60;;;;;;;16.03;59.60;98885.94;5069647;28;20334;-61
2023/05/13 08:05:34;;;;;;;3.33;2.83;;;;;;;16.32;59.03;98916.50;5069656;28;20587;-62
2023/05/13 08:08:00;;;;;;;3.88;2.53;;;;;;;15.90;59.05;98844.38;5069570;28;20620;-61
2023/05/13 08:10:26;;;;;;;3.78;2.75;;;;;;;16.39;59.57;98916.84;5069515;28;20180;-63
2023/05/13 08:12:56;;;;;;;2.40;2.20;;;;;;;16.15;58.29;98893.56;5069508;28;20277;-61
2023/05/13 08:15:22;;;;;;;2.00;1.90;;;;;;;16.20;58.68;98914.09;5069594;28;20181;-61
2023/05/13 08:17:48;;;;;;;2.80;2.38;;;;;;;16.02;57.78;98872.06;5069448;28;20191;-61
2023/05/13 08:20:14;;;;;;;2.50;2.28;;;;;;;16.13;57.55;98884.22;5069417;28;20181;-61
2023/05/13 08:22:39;;;;;;;4.55;2.53;;;;;;;16.46;57.22;98910.16;5069455;28;20173;-61
2023/05/13 08:25:05;;;;;;;2.75;2.50;;;;;;;16.34;57.49;98877.19;5055296;28;20192;-62
2023/05/13 08:27:30;;;;;;;3.80;1.95;;;;;;;16.08;55.95;98835.00;5051788;28;20169;-62
2023/05/13 08:29:56;;;;;;;3.20;1.80;;;;;;;16.39;54.75;98872.44;5051754;28;20227;-61
2023/05/13 08:32:21;;;;;;;1.70;1.60;;;;;;;16.65;54.70;98903.25;5051676;28;20205;-62
2023/05/13 08:34:47;;;;;;;1.90;1.80;;;;;;;16.34;54.82;98871.97;5051778;28;20200;-62
2023/05/13 08:37:12;;;;;;;2.50;1.70;;;;;;;16.61;55.56;98898.41;5051684;28;20169;-62
2023/05/13 08:39:38;;;;;;;4.15;2.17;;;;;;;16.76;55.31;98912.75;5051965;28;20255;-62
2023/05/13 08:42:06;;;;;;;5.78;1.98;;;;;;;16.74;55.19;98912.09;5051948;28;20185;-62
2023/05/13 08:44:31;;;;;;;3.00;2.10;;;;;;;16.44;54.06;98912.88;5051931;28;20177;-62
2023/05/13 08:47:22;;;;;;;6.55;2.17;;;;;;;16.36;54.24;98917.06;5051950;28;20170;-62
2023/05/13 08:49:49;;;;;;;1.60;1.50;;;;;;;16.34;55.00;98883.25;5055425;28;20559;-62
2023/05/13 08:52:16;;;;;;;2.70;1.80;;;;;;;16.36;54.45;98857.00;5055906;28;20231;-61
2023/05/13 08:54:43;;;;;;;7.43;2.42;;;;;;;16.86;53.62;98930.13;5056210;28;20178;-62
2023/05/13 08:57:08;;;;;;;3.08;2.03;;;;;;;16.31;53.15;98833.03;5055849;28;20177;-62
2023/05/13 08:59:33;;;;;;;2.08;1.88;;;;;;;16.85;53.29;98909.38;5055488;28;20208;-62
2023/05/13 09:02:02;;;;;;;5.78;2.05;;;;;;;17.00;51.83;98913.25;5056046;28;20846;-62
2023/05/13 09:04:28;;;;;;;2.78;2.13;;;;;;;16.90;52.10;98883.69;5055600;28;20636;-62
2023/05/13 09:06:53;;;;;;;3.88;2.05;;;;;;;17.02;52.57;98888.66;5055709;28;20177;-62
2023/05/13 09:09:19;;;;;;;2.15;1.90;;;;;;;16.97;51.80;98861.25;5055584;28;20173;-62
2023/05/13 09:11:47;;;;;;;2.08;1.98;;;;;;;17.38;52.34;98909.00;5055468;28;20364;-62
2023/05/13 09:14:18;;;;;;;4.93;1.67;;;;;;;17.57;52.91;98929.13;5055552;28;20174;-61
2023/05/13 09:16:43;;;;;;;4.40;1.77;;;;;;;17.12;53.50;98844.22;5055569;28;20620;-62
2023/05/13 09:19:10;;;;;;;2.75;1.80;;;;;;;17.53;53.90;98876.25;5055435;28;20200;-62
2023/05/13 09:21:36;;;;;;;4.57;1.77;;;;;;;17.92;52.14;98914.56;5055383;28;20185;-62
2023/05/13 09:24:17;;;;;;;2.53;2.30;;;;;;;17.57;52.93;98834.91;5055309;28;20250;-62
2023/05/13 09:26:44;;;;;;;4.35;2.05;;;;;;;17.77;53.00;98839.19;5055260;28;20176;-61
2023/05/13 09:29:28;;;;;;;9.18;1.95;;;;;;;18.14;52.46;98901.16;5055184;28;20230;-62
2023/05/13 09:32:00;;;;;;;3.88;2.30;;;;;;;17.94;53.23;98851.56;5055120;28;20189;-62
2023/05/13 09:34:30;;;;;;;6.22;2.60;;;;;;;18.23;53.14;98889.00;5054843;28;20200;-62
2023/05/13 09:36:59;;;;;;;3.15;2.20;;;;;;;18.41;52.50;98900.47;5055179;28;20230;-62
2023/05/13 09:39:25;;;;;;;3.40;2.50;;;;;;;18.16;52.09;98831.13;5055069;28;20180;-62
2023/05/13 09:41:51;;;;;;;3.65;2.03;;;;;;;18.44;51.44;98864.31;5055107;28;20177;-62
2023/05/13 09:44:17;;;;;;;2.60;1.83;;;;;;;18.36;50.96;98834.56;5054969;28;20662;-62
2023/05/13 09:46:42;;;;;;;2.17;2.08;;;;;;;18.89;49.58;98898.50;5054923;28;20264;-63
2023/05/13 09:49:10;;;;;;;4.47;2.28;;;;;;;18.20;50.24;98857.84;5054895;28;20590;-63
2023/05/13 09:51:36;;;;;;;2.10;1.90;;;;;;;17.97;50.71;98812.00;5054492;28;20592;-63
2023/05/13 09:54:06;;;;;;;2.20;2.10;;;;;;;18.43;51.51;98882.78;5054776;28;20177;-63
2023/05/13 09:56:33;;;;;;;2.28;2.10;;;;;;;18.62;50.92;98903.69;5054712;28;20176;-63
2023/05/13 09:58:59;;;;;;;5.28;2.38;;;;;;;18.46;50.84;98874.63;5053586;28;20630;-63
2023/05/13 10:01:27;;;;;;;3.75;2.35;;;;;;;18.15;51.85;98818.16;5054288;28;20215;-63
2023/05/13 10:03:54;;;;;;;4.45;1.95;;;;;;;18.78;51.29;98896.06;5054589;28;20203;-63
2023/05/13 10:06:25;;;;;;;2.67;2.20;;;;;;;18.42;50.04;98826.13;5054563;28;20169;-63
2023/05/13 10:08:51;;;;;;;3.15;2.00;;;;;;;18.64;50.56;98830.97;5054615;28;20526;-63
2023/05/13 10:11:20;;;;;;;4.68;2.42;;;;;;;18.93;48.59;98852.63;5054384;28;20170;-63
2023/05/13 10:13:49;;;;;;;1.80;1.67;;;;;;;19.22;49.12;98911.88;5054742;28;20625;-63
2023/05/13 10:16:17;;;;;;;4.25;1.95;;;;;;;18.85;49.15;98823.69;5071882;28;20752;-63
2023/05/13 10:18:43;;;;;;;3.45;2.40;;;;;;;19.26;49.76;98901.91;5071971;28;20567;-63
2023/05/13 10:21:08;;;;;;;2.83;2.30;;;;;;;19.21;50.67;98893.66;5071903;28;20192;-63
2023/05/13 10:23:34;;;;;;;3.88;2.17;;;;;;;18.86;49.24;98848.94;5071868;28;20196;-63
2023/05/13 10:26:00;;;;;;;4.50;2.45;;;;;;;18.82;51.13;98819.56;5071827;28;20177;-63
2023/05/13 10:28:26;;;;;;;5.88;2.30;;;;;;;19.33;50.77;98893.31;5071802;28;20277;-63
2023/05/13 10:30:52;;;;;;;5.80;2.30;;;;;;;19.43;48.37;98888.81;5071728;28;20172;-63
2023/05/13 10:33:18;;;;;;;6.70;2.22;;;;;;;18.98;49.25;98816.28;5071640;28;20212;-63
2023/05/13 10:36:10;;;;;;;2.50;2.00;;;;;;;19.14;49.63;98832.22;5071663;28;20177;-63
2023/05/13 10:39:12;;;;;;;3.20;2.00;;;;;;;19.79;48.76;98894.88;5071672;28;20177;-63
2023/05/13 10:42:02;;;;;;;7.97;3.00;;;;;;;19.64;49.12;98815.81;5071533;28;20668;-63
2023/05/13 10:44:31;;;;;;;4.53;2.60;;;;;;;20.36;48.18;98892.59;5071607;28;20168;-63
2023/05/13 10:46:57;;;;;;;2.30;2.10;;;;;;;20.33;47.61;98882.38;5071457;28;20658;-63
2023/05/13 10:49:25;;;;;;;4.03;2.03;;;;;;;20.03;46.56;98853.06;5071371;28;20218;-63
2023/05/13 10:51:51;;;;;;;6.13;2.03;;;;;;;20.29;46.99;98872.34;5071251;28;20224;-63
2023/05/13 10:54:21;;;;;;;2.25;2.05;;;;;;;20.56;46.10;98854.59;5057795;28;20181;-63
2023/05/13 10:56:57;;;;;;;3.30;1.98;;;;;;;20.71;45.43;98841.66;5053701;28;20162;-63
2023/05/13 10:59:22;;;;;;;2.00;1.90;;;;;;;20.86;45.20;98871.66;5053311;28;20193;-63
2023/05/13 11:01:48;;;;;;;3.17;1.98;;;;;;;20.79;44.99;98860.94;5053534;28;20659;-63
2023/05/13 11:04:16;;;;;;;2.45;1.80;;;;;;;20.32;44.93;98814.19;5053497;28;20258;-63
2023/05/13 11:06:43;;;;;;;3.47;1.95;;;;;;;20.31;45.36;98859.84;5053153;28;20184;-63
2023/05/13 11:09:36;;;;;;;2.47;2.17;;;;;;;20.58;46.33;98884.16;5053443;28;20192;-63
2023/05/13 11:12:02;;;;;;;1.80;1.70;;;;;;;20.69;45.45;98877.84;5050364;28;20213;-63
2023/05/13 11:14:30;;;;;;;2.10;1.90;;;;;;;20.62;45.19;98822.41;5050893;28;20630;-63
2023/05/13 11:17:01;;;;;;;5.65;2.20;;;;;;;21.33;45.05;98888.63;5050861;28;20188;-63
2023/05/13 11:19:33;;;;;;;2.33;1.65;;;;;;;21.08;44.60;98818.47;5050734;28;20271;-63
2023/05/13 11:22:15;;;;;;;2.65;1.63;;;;;;;21.34;44.03;98843.69;5050708;28;20189;-63
2023/05/13 11:24:44;;;;;;;4.00;2.20;;;;;;;21.64;43.38;98879.16;5050822;28;20268;-63
2023/05/13 11:27:15;;;;;;;3.17;1.75;;;;;;;21.66;43.14;98867.47;5050720;28;20185;-63
2023/05/13 11:29:54;;;;;;;3.38;2.08;;;;;;;21.51;43.20;98823.50;5050729;28;20229;-63
2023/05/13 11:32:52;;;;;;;2.22;2.03;;;;;;;21.99;43.19;98892.03;5050542;28;20752;-63